createdAt,value
2018-04-04T00:00:49.393Z,98334.30
2018-04-04T00:03:17.860Z,98344.94
2018-04-04T00:05:46.239Z,98341.02
2018-04-04T00:08:15.622Z,98334.88
2018-04-04T00:10:43.993Z,98335.38
2018-04-04T00:13:12.356Z,98333.73
2018-04-04T00:15:40.747Z,98334.92
2018-04-04T00:18:09.107Z,98326.41
2018-04-04T00:20:37.476Z,98327.16
2018-04-04T00:23:05.856Z,98317.33
2018-04-04T00:25:34.276Z,98334.14
2018-04-04T00:28:02.668Z,98322.31
2018-04-04T00:30:31.050Z,98319.91
2018-04-04T00:32:59.428Z,98328.50
2018-04-04T00:35:27.812Z,98324.72
2018-04-04T00:37:56.179Z,98317.25
2018-04-04T00:40:24.564Z,98319.55
2018-04-04T00:42:52.962Z,98320.86
2018-04-04T00:45:21.341Z,98330.67
2018-04-04T00:47:49.722Z,98333.39
2018-04-04T00:50:18.083Z,98325.72
2018-04-04T00:52:46.456Z,98330.98
2018-04-04T00:55:14.829Z,98169.38
2018-04-04T00:57:43.209Z,98331.44
2018-04-04T01:00:11.596Z,98321.22
2018-04-04T01:02:39.970Z,98333.84
2018-04-04T01:05:12.566Z,98323.11
2018-04-04T01:07:40.927Z,98334.05
2018-04-04T01:10:10.780Z,98330.91
2018-04-04T01:12:39.171Z,98335.72
2018-04-04T01:15:08.763Z,98343.81
2018-04-04T01:17:37.152Z,98342.67
2018-04-04T01:20:07.949Z,98340.27
2018-04-04T01:22:36.357Z,98353.14
2018-04-04T01:25:04.795Z,98351.52
2018-04-04T01:27:33.174Z,98348.34
2018-04-04T01:30:01.336Z,98336.39
2018-04-04T01:32:29.717Z,98327.43
2018-04-04T01:34:58.094Z,98318.95
2018-04-04T01:37:26.485Z,98314.85
2018-04-04T01:39:54.872Z,98321.53
2018-04-04T01:42:23.259Z,98310.90
2018-04-04T01:44:51.636Z,98313.19
2018-04-04T01:47:20.001Z,98291.52
2018-04-04T01:49:48.744Z,98301.80
2018-04-04T01:52:17.307Z,98294.70
2018-04-04T01:54:45.682Z,98291.23
2018-04-04T01:57:14.066Z,98291.88
2018-04-04T01:59:42.451Z,98286.92
2018-04-04T02:02:10.822Z,98295.80
2018-04-04T02:04:39.194Z,98307.94
2018-04-04T02:07:07.831Z,98300.86
2018-04-04T02:09:36.207Z,98294.05
2018-04-04T02:12:04.587Z,98311.83
2018-04-04T02:14:32.962Z,98307.20
2018-04-04T02:17:01.343Z,98294.86
2018-04-04T02:19:29.726Z,98299.94
2018-04-04T02:21:58.099Z,98303.88
2018-04-04T02:24:26.502Z,98328.80
2018-04-04T02:26:54.895Z,98329.38
2018-04-04T02:29:23.269Z,98317.27
2018-04-04T02:31:51.423Z,98323.14
2018-04-04T02:34:19.832Z,98315.19
2018-04-04T02:36:48.193Z,98312.02
2018-04-04T02:39:16.569Z,98300.14
2018-04-04T02:41:44.961Z,98310.11
2018-04-04T02:44:13.365Z,98313.72
2018-04-04T02:46:41.738Z,98312.38
2018-04-04T02:49:10.113Z,98307.61
2018-04-04T02:51:38.513Z,98315.14
2018-04-04T02:54:06.875Z,98310.66
2018-04-04T02:56:35.255Z,98302.64
2018-04-04T02:59:03.635Z,98309.22
2018-04-04T03:01:32.005Z,98308.70
2018-04-04T03:04:00.382Z,98305.28
2018-04-04T03:06:29.062Z,98295.75
2018-04-04T03:08:57.431Z,98305.11
2018-04-04T03:11:25.846Z,98295.13
2018-04-04T03:13:54.244Z,98270.28
2018-04-04T03:16:22.609Z,98311.95
2018-04-04T03:18:51.043Z,98321.95
2018-04-04T03:21:19.445Z,98319.61
2018-04-04T03:23:47.594Z,98322.09
2018-04-04T03:26:15.972Z,98331.04
2018-04-04T03:28:44.340Z,98328.80
2018-04-04T03:31:12.722Z,98330.00
2018-04-04T03:33:41.090Z,98337.96
2018-04-04T03:36:09.469Z,98341.33
2018-04-04T03:38:37.879Z,98335.73
2018-04-04T03:41:06.262Z,98329.86
2018-04-04T03:43:34.632Z,98331.34
2018-04-04T03:46:03.096Z,98334.90
2018-04-04T03:48:31.460Z,98317.83
2018-04-04T03:50:59.838Z,98313.57
2018-04-04T03:53:28.211Z,98315.67
2018-04-04T03:55:56.589Z,98314.39
2018-04-04T03:58:24.972Z,98309.30
2018-04-04T04:00:53.365Z,98314.28
2018-04-04T04:03:21.756Z,98327.78
2018-04-04T04:05:50.147Z,98325.41
2018-04-04T04:08:18.517Z,98340.64
2018-04-04T04:10:46.890Z,98335.14
2018-04-04T04:13:15.278Z,98330.67
2018-04-04T04:15:43.845Z,98337.77
2018-04-04T04:18:12.018Z,98337.38
2018-04-04T04:20:40.390Z,98336.89
2018-04-04T04:23:08.749Z,98329.99
2018-04-04T04:25:37.151Z,98339.83
2018-04-04T04:28:05.527Z,98335.94
2018-04-04T04:30:33.951Z,98324.64
2018-04-04T04:33:02.472Z,98313.11
2018-04-04T04:35:30.860Z,98308.87
2018-04-04T04:37:59.111Z,98318.43
2018-04-04T04:40:27.483Z,98320.92
2018-04-04T04:42:55.891Z,98322.89
2018-04-04T04:45:24.636Z,98328.59
2018-04-04T04:47:53.033Z,98333.68
2018-04-04T04:50:21.413Z,98342.48
2018-04-04T04:52:49.847Z,98335.39
2018-04-04T04:55:18.251Z,98338.58
2018-04-04T04:57:46.688Z,98334.19
2018-04-04T05:00:15.088Z,98326.75
2018-04-04T05:02:43.690Z,98320.06
2018-04-04T05:05:12.059Z,98320.74
2018-04-04T05:07:40.423Z,98321.92
2018-04-04T05:10:08.561Z,98329.27
2018-04-04T05:12:36.946Z,98345.81
2018-04-04T05:15:07.198Z,98342.16
2018-04-04T05:17:35.577Z,98337.17
2018-04-04T05:20:07.999Z,98327.22
2018-04-04T05:22:36.404Z,98342.59
2018-04-04T05:25:07.125Z,98340.13
2018-04-04T05:27:35.504Z,98347.02
2018-04-04T05:30:03.650Z,98346.73
2018-04-04T05:32:32.023Z,98340.13
2018-04-04T05:35:00.403Z,98339.47
2018-04-04T05:37:28.791Z,98343.44
2018-04-04T05:39:57.166Z,98348.94
2018-04-04T05:42:25.532Z,98351.63
2018-04-04T05:44:53.911Z,98357.62
2018-04-04T05:47:22.339Z,98361.80
2018-04-04T05:49:50.713Z,98347.56
2018-04-04T05:52:19.106Z,98338.34
2018-04-04T05:54:47.542Z,98326.73
2018-04-04T05:57:15.946Z,98325.06
2018-04-04T05:59:44.319Z,98331.22
2018-04-04T06:02:12.683Z,98339.64
2018-04-04T06:04:40.887Z,98343.05
2018-04-04T06:07:09.265Z,98334.34
2018-04-04T06:09:37.712Z,98260.65
2018-04-04T06:12:06.105Z,98328.72
2018-04-04T06:14:34.516Z,98343.27
2018-04-04T06:17:02.938Z,98351.28
2018-04-04T06:19:31.335Z,98356.03
2018-04-04T06:21:59.744Z,98346.92
2018-04-04T06:24:28.159Z,98337.39
2018-04-04T06:26:56.556Z,98344.29
2018-04-04T06:29:24.978Z,98335.98
2018-04-04T06:31:53.602Z,98330.25
2018-04-04T06:34:21.980Z,98329.73
2018-04-04T06:36:50.359Z,98338.14
2018-04-04T06:39:18.726Z,98326.06
2018-04-04T06:41:47.091Z,98316.05
2018-04-04T06:44:15.468Z,98307.81
2018-04-04T06:46:43.853Z,98309.09
2018-04-04T06:49:12.219Z,98317.88
2018-04-04T06:51:40.607Z,98312.19
2018-04-04T06:54:09.682Z,98314.16
2018-04-04T06:56:38.048Z,98335.81
2018-04-04T06:59:06.415Z,98352.28
2018-04-04T07:01:34.805Z,98349.19
2018-04-04T07:04:03.190Z,98342.76
2018-04-04T07:06:31.571Z,98340.53
2018-04-04T07:08:59.993Z,98324.95
2018-04-04T07:11:28.560Z,98322.59
2018-04-04T07:13:56.938Z,98319.28
2018-04-04T07:16:25.322Z,98312.96
2018-04-04T07:18:53.705Z,98301.73
2018-04-04T07:21:22.076Z,98302.35
2018-04-04T07:23:50.453Z,98292.51
2018-04-04T07:26:18.884Z,98289.50
2018-04-04T07:28:47.262Z,98301.28
2018-04-04T07:31:15.642Z,98312.14
2018-04-04T07:33:44.026Z,98325.51
2018-04-04T07:36:12.432Z,98305.88
2018-04-04T07:38:40.847Z,98318.73
2018-04-04T07:41:09.257Z,98329.71
2018-04-04T07:43:37.404Z,98324.75
2018-04-04T07:46:05.771Z,98322.94
2018-04-04T07:48:34.176Z,98314.88
2018-04-04T07:51:02.544Z,98325.02
2018-04-04T07:53:30.922Z,98329.10
2018-04-04T07:55:59.289Z,98313.59
2018-04-04T07:58:27.693Z,98311.62
2018-04-04T08:00:56.146Z,98310.53
2018-04-04T08:03:24.534Z,98302.23
2018-04-04T08:05:53.036Z,98308.84
2018-04-04T08:08:21.418Z,98265.44
2018-04-04T08:10:49.803Z,98313.11
2018-04-04T08:13:17.995Z,98303.33
2018-04-04T08:15:46.154Z,98323.45
2018-04-04T08:18:14.526Z,98323.61
2018-04-04T08:20:42.894Z,98309.19
2018-04-04T08:23:11.284Z,98313.58
2018-04-04T08:25:39.683Z,98313.87
2018-04-04T08:28:07.831Z,98321.91
2018-04-04T08:30:36.208Z,98316.97
2018-04-04T08:33:04.586Z,98310.83
2018-04-04T08:35:32.963Z,98324.97
2018-04-04T08:38:13.420Z,98319.45
2018-04-04T08:40:41.811Z,98315.55
2018-04-04T08:43:10.192Z,98303.48
2018-04-04T08:45:38.576Z,98322.81
2018-04-04T08:48:06.961Z,98324.39
2018-04-04T08:50:35.341Z,98305.27
2018-04-04T08:53:03.706Z,98315.63
2018-04-04T08:55:32.084Z,98321.64
2018-04-04T08:58:01.078Z,98317.59
2018-04-04T09:00:29.463Z,98306.23
2018-04-04T09:02:57.840Z,98315.22
2018-04-04T09:05:26.044Z,98315.94
2018-04-04T09:07:54.435Z,98309.36
2018-04-04T09:10:22.827Z,98310.47
2018-04-04T09:12:51.194Z,98306.18
2018-04-04T09:15:19.562Z,98302.14
2018-04-04T09:17:48.609Z,98312.32
2018-04-04T09:20:16.967Z,98324.54
2018-04-04T09:22:45.103Z,98308.23
2018-04-04T09:25:13.478Z,98301.82
2018-04-04T09:27:41.864Z,98297.31
2018-04-04T09:30:10.273Z,98301.00
2018-04-04T09:32:38.644Z,98293.05
2018-04-04T09:35:10.000Z,98304.66
2018-04-04T09:37:38.401Z,98300.42
2018-04-04T09:40:11.079Z,98299.34
2018-04-04T09:42:39.495Z,98289.58
2018-04-04T09:45:10.938Z,98288.84
2018-04-04T09:47:39.078Z,98286.52
2018-04-04T09:50:09.352Z,98281.98
2018-04-04T09:52:37.750Z,98270.89
2018-04-04T09:55:06.241Z,98291.06
2018-04-04T09:57:34.627Z,98284.14
2018-04-04T10:00:03.028Z,98295.24
2018-04-04T10:02:31.403Z,98300.20
2018-04-04T10:04:59.768Z,98289.94
2018-04-04T10:07:28.151Z,98289.65
2018-04-04T10:09:56.623Z,98285.37
2018-04-04T10:12:25.012Z,98279.54
2018-04-04T10:14:53.406Z,98273.75
2018-04-04T10:17:21.800Z,98276.88
2018-04-04T10:19:50.167Z,98274.22
2018-04-04T10:22:18.541Z,98286.14
2018-04-04T10:24:46.924Z,98278.84
2018-04-04T10:27:15.291Z,98248.69
2018-04-04T10:29:43.725Z,98283.59
2018-04-04T10:32:12.091Z,98283.44
2018-04-04T10:34:40.486Z,98290.12
2018-04-04T10:37:09.134Z,98282.81
2018-04-04T10:39:37.511Z,98284.42
2018-04-04T10:42:05.890Z,98276.95
2018-04-04T10:44:34.279Z,98270.84
2018-04-04T10:47:02.664Z,98263.40
2018-04-04T10:49:31.038Z,98258.17
2018-04-04T10:51:59.406Z,98264.92
2018-04-04T10:54:27.783Z,98269.77
2018-04-04T10:56:56.201Z,98226.17
2018-04-04T10:59:24.582Z,98256.75
2018-04-04T11:01:52.957Z,98254.90
2018-04-04T11:04:21.548Z,98256.20
2018-04-04T11:06:49.923Z,98251.50
2018-04-04T11:09:18.288Z,98252.36
2018-04-04T11:11:46.671Z,98251.53
2018-04-04T11:14:15.057Z,98242.65
2018-04-04T11:16:43.423Z,98256.93
2018-04-04T11:19:11.801Z,98252.36
2018-04-04T11:21:40.190Z,98246.27
2018-04-04T11:24:08.849Z,98250.85
2018-04-04T11:26:37.136Z,98252.45
2018-04-04T11:29:05.503Z,98244.65
2018-04-04T11:31:33.883Z,98249.73
2018-04-04T11:34:02.250Z,98242.81
2018-04-04T11:36:30.615Z,98233.76
2018-04-04T11:38:58.998Z,98238.06
2018-04-04T11:41:27.363Z,98242.87
2018-04-04T11:43:55.786Z,98233.48
2018-04-04T11:46:24.348Z,98233.86
2018-04-04T11:48:52.715Z,98230.61
2018-04-04T11:51:21.126Z,98224.63
2018-04-04T11:53:49.491Z,98226.94
2018-04-04T11:56:17.641Z,98218.11
2018-04-04T11:58:46.036Z,98214.75
2018-04-04T12:01:14.411Z,98210.33
2018-04-04T12:03:42.784Z,98207.73
2018-04-04T12:06:11.483Z,98210.73
2018-04-04T12:08:40.104Z,98208.08
2018-04-04T12:11:08.265Z,98209.66
2018-04-04T12:13:36.830Z,98204.66
2018-04-04T12:16:05.478Z,98203.52
2018-04-04T12:18:33.638Z,98196.85
2018-04-04T12:21:01.928Z,98181.27
2018-04-04T12:23:30.359Z,98191.56
2018-04-04T12:25:58.759Z,98191.34
2018-04-04T12:28:27.131Z,98194.28
2018-04-04T12:30:55.503Z,98199.45
2018-04-04T12:33:23.875Z,98196.33
2018-04-04T12:35:52.264Z,98198.16
2018-04-04T12:38:20.794Z,98192.11
2018-04-04T12:40:49.447Z,98191.45
2018-04-04T12:43:17.817Z,98185.17
2018-04-04T12:45:46.216Z,98182.70
2018-04-04T12:48:14.596Z,98181.55
2018-04-04T12:50:43.051Z,98138.75
2018-04-04T12:53:11.426Z,98186.09
2018-04-04T12:55:39.831Z,98179.83
2018-04-04T12:58:08.231Z,98154.78
2018-04-04T13:00:36.630Z,98175.64
2018-04-04T13:03:05.010Z,98176.64
2018-04-04T13:05:33.407Z,98175.88
2018-04-04T13:08:01.869Z,98178.26
2018-04-04T13:10:30.451Z,98177.27
2018-04-04T13:12:58.834Z,98171.48
2018-04-04T13:15:27.228Z,98171.55
2018-04-04T13:17:55.613Z,98167.05
2018-04-04T13:20:23.990Z,98159.94
2018-04-04T13:22:52.350Z,98163.69
2018-04-04T13:25:20.743Z,98158.51
2018-04-04T13:27:49.099Z,98156.20
2018-04-04T13:30:17.530Z,98157.78
2018-04-04T13:32:45.896Z,98160.86
2018-04-04T13:35:16.104Z,98148.94
2018-04-04T13:37:44.471Z,98139.01
2018-04-04T13:40:17.519Z,98130.92
2018-04-04T13:42:45.897Z,98138.13
2018-04-04T13:45:14.268Z,98139.27
2018-04-04T13:47:42.639Z,98130.66
2018-04-04T13:50:12.816Z,98037.07
2018-04-04T13:52:41.387Z,98122.84
2018-04-04T13:55:11.082Z,98122.83
2018-04-04T13:57:39.483Z,98123.17
2018-04-04T14:00:12.156Z,98116.58
2018-04-04T14:02:40.298Z,98120.09
2018-04-04T14:05:14.138Z,98113.84
2018-04-04T14:07:42.518Z,98116.92
2018-04-04T14:10:11.787Z,98113.63
2018-04-04T14:12:40.201Z,98116.09
2018-04-04T14:15:10.652Z,98113.51
2018-04-04T14:17:39.034Z,98107.56
2018-04-04T14:20:12.797Z,98108.80
2018-04-04T14:22:41.186Z,98105.70
2018-04-04T14:25:10.774Z,98080.06
2018-04-04T14:27:39.143Z,98113.42
2018-04-04T14:30:13.184Z,98103.67
2018-04-04T14:32:41.593Z,98104.69
2018-04-04T14:35:11.793Z,98112.22
2018-04-04T14:37:40.301Z,98107.78
2018-04-04T14:40:12.287Z,98100.59
2018-04-04T14:42:40.430Z,98086.95
2018-04-04T14:45:11.547Z,98085.09
2018-04-04T14:47:39.961Z,98083.80
2018-04-04T14:50:09.597Z,98085.56
2018-04-04T14:52:37.993Z,98080.16
2018-04-04T14:55:16.037Z,98001.44
2018-04-04T14:57:44.480Z,98085.19
2018-04-04T15:00:20.070Z,98039.19
2018-04-04T15:02:48.444Z,98072.94
2018-04-04T15:05:16.826Z,98075.63
2018-04-04T15:07:45.250Z,98076.81
2018-04-04T15:10:13.642Z,97979.26
2018-04-04T15:12:42.049Z,98068.42
2018-04-04T15:15:17.530Z,98067.30
2018-04-04T15:17:45.905Z,98066.53
2018-04-04T15:20:14.042Z,98062.59
2018-04-04T15:22:42.434Z,98061.88
2018-04-04T15:25:11.699Z,98056.00
2018-04-04T15:27:40.072Z,98043.21
2018-04-04T15:30:11.898Z,98042.52
2018-04-04T15:32:40.279Z,98044.95
2018-04-04T15:35:12.371Z,98046.22
2018-04-04T15:37:40.879Z,98039.03
2018-04-04T15:40:10.063Z,98037.85
2018-04-04T15:42:38.455Z,98039.33
2018-04-04T15:45:11.062Z,98035.39
2018-04-04T15:47:39.448Z,98034.19
2018-04-04T15:50:14.376Z,98046.44
2018-04-04T15:52:43.982Z,98040.00
2018-04-04T15:55:18.829Z,97979.86
2018-04-04T15:57:47.202Z,98040.86
2018-04-04T16:00:15.582Z,98022.68
2018-04-04T16:02:44.107Z,98037.22
2018-04-04T16:05:12.498Z,98028.45
2018-04-04T16:07:40.870Z,98026.50
2018-04-04T16:10:12.801Z,98021.34
2018-04-04T16:12:41.828Z,98020.83
2018-04-04T16:15:11.873Z,98026.14
2018-04-04T16:17:40.248Z,98031.61
2018-04-04T16:20:12.872Z,98032.20
2018-04-04T16:22:41.250Z,98027.06
2018-04-04T16:25:17.681Z,98028.70
2018-04-04T16:27:46.075Z,98024.23
2018-04-04T16:30:14.497Z,98027.58
2018-04-04T16:32:43.541Z,98020.87
2018-04-04T16:35:12.428Z,97956.92
2018-04-04T16:37:40.820Z,98024.02
2018-04-04T16:40:09.829Z,98020.18
2018-04-04T16:42:38.209Z,98020.95
2018-04-04T16:45:08.778Z,98009.18
2018-04-04T16:47:37.179Z,98012.22
2018-04-04T16:50:05.589Z,98004.08
2018-04-04T16:52:37.333Z,98000.50
2018-04-04T16:55:13.062Z,97998.16
2018-04-04T16:57:41.440Z,97993.20
2018-04-04T17:00:18.515Z,97923.78
2018-04-04T17:02:47.027Z,97989.04
2018-04-04T17:05:15.485Z,97988.92
2018-04-04T17:07:43.884Z,97987.42
2018-04-04T17:10:18.446Z,97990.38
2018-04-04T17:12:46.834Z,97988.36
2018-04-04T17:15:15.215Z,97981.08
2018-04-04T17:17:43.583Z,97984.55
2018-04-04T17:20:19.559Z,97936.34
2018-04-04T17:22:47.958Z,97992.48
2018-04-04T17:25:16.318Z,97998.78
2018-04-04T17:27:44.707Z,98005.28
2018-04-04T17:30:14.006Z,98005.30
2018-04-04T17:32:42.152Z,98002.23
2018-04-04T17:35:18.828Z,97955.41
2018-04-04T17:37:47.196Z,97998.51
2018-04-04T17:40:21.771Z,97917.78
2018-04-04T17:42:50.141Z,97984.91
2018-04-04T17:45:19.625Z,98010.48
2018-04-04T17:47:47.784Z,98014.55
2018-04-04T17:50:16.170Z,98000.84
2018-04-04T17:52:44.605Z,97992.95
2018-04-04T17:55:15.309Z,98024.38
2018-04-04T17:57:43.450Z,98020.74
2018-04-04T18:00:12.632Z,98022.90
2018-04-04T18:02:41.087Z,98025.83
2018-04-04T18:05:20.475Z,98019.27
2018-04-04T18:07:48.898Z,98011.84
2018-04-04T18:10:17.265Z,98010.36
2018-04-04T18:12:45.613Z,98013.45
2018-04-04T18:15:18.721Z,98016.50
2018-04-04T18:17:47.450Z,98016.37
2018-04-04T18:20:18.715Z,98016.92
2018-04-04T18:22:47.116Z,98018.13
2018-04-04T18:25:15.480Z,98027.69
2018-04-04T18:27:43.856Z,98031.56
2018-04-04T18:30:12.218Z,98031.12
2018-04-04T18:32:41.028Z,98035.11
2018-04-04T18:35:14.042Z,98022.39
2018-04-04T18:37:42.546Z,98032.45
2018-04-04T18:40:15.038Z,98033.70
2018-04-04T18:42:43.450Z,98037.11
2018-04-04T18:45:14.609Z,98040.99
2018-04-04T18:47:42.981Z,98027.02
2018-04-04T18:50:14.311Z,97940.59
2018-04-04T18:52:42.678Z,98046.06
2018-04-04T18:55:19.066Z,98038.08
2018-04-04T18:57:47.577Z,98042.72
2018-04-04T19:00:20.544Z,98004.67
2018-04-04T19:02:48.686Z,98031.48
2018-04-04T19:05:18.431Z,98044.06
2018-04-04T19:07:46.797Z,98044.77
2018-04-04T19:10:15.227Z,98049.52
2018-04-04T19:12:43.981Z,98043.76
2018-04-04T19:15:13.047Z,98044.31
2018-04-04T19:17:41.426Z,98052.20
2018-04-04T19:20:16.198Z,98051.40
2018-04-04T19:22:45.160Z,98042.66
2018-04-04T19:25:13.303Z,98057.46
2018-04-04T19:27:41.796Z,98059.56
2018-04-04T19:30:14.174Z,98058.67
2018-04-04T19:32:42.569Z,98051.58
2018-04-04T19:35:14.372Z,98051.19
2018-04-04T19:37:42.742Z,98055.85
2018-04-04T19:42:54.511Z,98043.20
2018-04-04T19:45:22.861Z,98047.81
2018-04-04T19:47:51.246Z,98042.91
2018-04-04T19:50:19.680Z,98043.60
2018-04-04T19:52:48.056Z,98039.47
2018-04-04T19:55:22.418Z,98040.80
2018-04-04T19:57:50.778Z,98063.13
2018-04-04T20:00:19.442Z,98066.56
2018-04-04T20:02:48.456Z,98068.88
2018-04-04T20:05:16.850Z,98066.19
2018-04-04T20:07:45.223Z,98072.83
2018-04-04T20:10:13.620Z,98064.21
2018-04-04T20:12:42.046Z,98070.06
2018-04-04T20:15:14.555Z,98065.78
2018-04-04T20:17:44.586Z,98068.65
2018-04-04T20:20:18.395Z,98068.77
2018-04-04T20:22:46.961Z,98070.63
2018-04-04T20:25:16.887Z,98079.30
2018-04-04T20:27:45.714Z,98078.36
2018-04-04T20:30:18.323Z,98080.31
2018-04-04T20:32:47.688Z,98072.51
2018-04-04T20:35:16.672Z,98064.16
2018-04-04T20:37:45.042Z,98060.66
2018-04-04T20:40:13.713Z,98058.86
2018-04-04T20:42:42.193Z,98056.17
2018-04-04T20:45:14.512Z,98035.50
2018-04-04T20:47:42.706Z,98058.34
2018-04-04T20:50:15.216Z,98050.45
2018-04-04T20:52:45.301Z,98049.81
2018-04-04T20:55:14.582Z,98051.09
2018-04-04T20:57:43.811Z,98057.33
2018-04-04T21:00:13.306Z,98063.29
2018-04-04T21:02:41.793Z,98072.75
2018-04-04T21:05:20.847Z,98075.03
2018-04-04T21:07:49.732Z,98076.44
2018-04-04T21:10:18.110Z,98074.92
2018-04-04T21:12:46.667Z,98081.72
2018-04-04T21:15:15.044Z,98079.97
2018-04-04T21:17:43.447Z,98078.79
2018-04-04T21:20:18.734Z,98039.95
2018-04-04T21:22:47.137Z,98070.66
2018-04-04T21:25:15.607Z,98079.85
2018-04-04T21:27:43.994Z,98079.07
2018-04-04T21:30:14.149Z,97969.89
2018-04-04T21:32:42.526Z,98091.78
2018-04-04T21:35:14.340Z,98088.68
2018-04-04T21:37:42.766Z,98088.66
2018-04-04T21:40:14.234Z,98083.81
2018-04-04T21:42:42.887Z,98100.58
2018-04-04T21:45:15.228Z,98024.87
2018-04-04T21:47:43.655Z,98115.69
2018-04-04T21:50:12.675Z,98092.95
2018-04-04T21:52:41.063Z,98121.09
2018-04-04T21:55:18.142Z,98130.09
2018-04-04T21:57:46.522Z,98135.80
2018-04-04T22:00:14.683Z,98134.87
2018-04-04T22:02:42.812Z,98139.27
2018-04-04T22:05:14.972Z,98136.70
2018-04-04T22:07:43.383Z,98148.42
2018-04-04T22:10:15.065Z,98152.39
2018-04-04T22:12:43.464Z,98154.58
2018-04-04T22:15:15.383Z,98157.37
2018-04-04T22:17:43.879Z,98161.80
2018-04-04T22:20:19.136Z,98082.42
2018-04-04T22:22:47.566Z,98174.15
2018-04-04T22:25:15.963Z,98205.50
2018-04-04T22:27:44.351Z,98206.67
2018-04-04T22:30:12.747Z,98219.25
2018-04-04T22:32:41.160Z,98217.61
2018-04-04T22:35:14.788Z,98152.27
2018-04-04T22:37:43.267Z,98228.81
2018-04-04T22:40:13.960Z,98220.79
2018-04-04T22:42:42.338Z,98221.31
2018-04-04T22:45:13.133Z,98220.05
2018-04-04T22:47:41.521Z,98212.05
2018-04-04T22:50:13.878Z,98209.36
2018-04-04T22:52:43.812Z,98202.53
2018-04-04T22:55:12.199Z,98213.94
2018-04-04T22:57:40.568Z,98220.13
2018-04-04T23:00:12.318Z,98202.30
2018-04-04T23:02:40.683Z,98200.97
2018-04-04T23:05:13.690Z,98220.53
2018-04-04T23:07:42.052Z,98206.59
2018-04-04T23:10:12.289Z,98202.02
2018-04-04T23:12:40.692Z,98207.57
2018-04-04T23:15:13.674Z,98201.22
2018-04-04T23:17:42.046Z,98196.73
2018-04-04T23:20:12.240Z,98206.06
2018-04-04T23:22:40.612Z,98202.42
2018-04-04T23:25:18.496Z,98193.37
2018-04-04T23:27:46.896Z,98178.67
2018-04-04T23:30:15.282Z,98181.14
2018-04-04T23:32:43.700Z,98181.64
2018-04-04T23:35:14.200Z,98206.55
2018-04-04T23:37:42.563Z,98217.77
2018-04-04T23:40:15.855Z,98219.55
2018-04-04T23:42:44.842Z,98226.78
2018-04-04T23:45:14.466Z,98222.95
2018-04-04T23:47:42.833Z,98221.94
2018-04-04T23:50:14.078Z,98231.63
2018-04-04T23:52:43.042Z,98231.48
2018-04-04T23:55:12.917Z,98238.73
2018-04-04T23:57:41.293Z,98239.36
